sensor_id;sensor_type;location;lat;lon;timestamp;pressure;altitude;pressure_sealevel;temperature;humidity
62617;BME280;62539;51.190;6.808;2022-12-07T00:01:27;101410.44;;;17.98;54.20
62617;BME280;62539;51.190;6.808;2022-12-07T00:03:55;101410.50;;;17.97;54.46
62617;BME280;62539;51.190;6.808;2022-12-07T00:06:38;101406.13;;;17.96;54.35
62617;BME280;62539;51.190;6.808;2022-12-07T00:09:13;101403.59;;;17.92;54.46
62617;BME280;62539;51.190;6.808;2022-12-07T00:11:40;101407.09;;;17.91;54.70
62617;BME280;62539;51.190;6.808;2022-12-07T00:14:10;101405.38;;;17.90;54.42
62617;BME280;62539;51.190;6.808;2022-12-07T00:16:38;101400.13;;;17.89;54.40
62617;BME280;62539;51.190;6.808;2022-12-07T00:19:04;101408.06;;;17.87;54.37
62617;BME280;62539;51.190;6.808;2022-12-07T00:21:32;101401.97;;;17.85;54.48
62617;BME280;62539;51.190;6.808;2022-12-07T00:23:59;101409.03;;;17.83;54.63
62617;BME280;62539;51.190;6.808;2022-12-07T00:26:28;101400.31;;;17.81;54.46
62617;BME280;62539;51.190;6.808;2022-12-07T00:29:03;101406.47;;;17.80;54.68
62617;BME280;62539;51.190;6.808;2022-12-07T00:31:34;101405.63;;;17.78;54.63
62617;BME280;62539;51.190;6.808;2022-12-07T00:34:09;101402.19;;;17.76;54.65
62617;BME280;62539;51.190;6.808;2022-12-07T00:36:38;101412.69;;;17.76;54.71
62617;BME280;62539;51.190;6.808;2022-12-07T00:39:03;101411.78;;;17.75;54.72
62617;BME280;62539;51.190;6.808;2022-12-07T00:41:29;101403.97;;;17.74;54.73
62617;BME280;62539;51.190;6.808;2022-12-07T00:43:55;101400.50;;;17.72;54.66
62617;BME280;62539;51.190;6.808;2022-12-07T00:46:22;101397.88;;;17.72;54.61
62617;BME280;62539;51.190;6.808;2022-12-07T00:48:49;101394.44;;;17.70;54.73
62617;BME280;62539;51.190;6.808;2022-12-07T00:51:18;101403.22;;;17.69;54.77
62617;BME280;62539;51.190;6.808;2022-12-07T00:53:45;101397.97;;;17.67;54.73
62617;BME280;62539;51.190;6.808;2022-12-07T00:56:13;101395.41;;;17.66;54.61
62617;BME280;62539;51.190;6.808;2022-12-07T00:58:40;101386.69;;;17.63;54.71
62617;BME280;62539;51.190;6.808;2022-12-07T01:01:07;101391.94;;;17.63;54.82
62617;BME280;62539;51.190;6.808;2022-12-07T01:03:34;101388.44;;;17.63;54.74
62617;BME280;62539;51.190;6.808;2022-12-07T01:06:00;101388.44;;;17.63;54.63
62617;BME280;62539;51.190;6.808;2022-12-07T01:08:27;101386.75;;;17.60;54.78
62617;BME280;62539;51.190;6.808;2022-12-07T01:11:00;101386.75;;;17.60;54.90
62617;BME280;62539;51.190;6.808;2022-12-07T01:13:31;101382.34;;;17.61;55.02
62617;BME280;62539;51.190;6.808;2022-12-07T01:15:59;101383.31;;;17.58;54.99
62617;BME280;62539;51.190;6.808;2022-12-07T01:18:27;101388.53;;;17.58;54.81
62617;BME280;62539;51.190;6.808;2022-12-07T01:21:18;101391.22;;;17.55;54.97
62617;BME280;62539;51.190;6.808;2022-12-07T01:23:46;101385.09;;;17.56;54.92
62617;BME280;62539;51.190;6.808;2022-12-07T01:26:14;101385.16;;;17.53;54.88
62617;BME280;62539;51.190;6.808;2022-12-07T01:28:41;101387.78;;;17.52;55.06
62617;BME280;62539;51.190;6.808;2022-12-07T01:31:10;101397.44;;;17.51;55.08
62617;BME280;62539;51.190;6.808;2022-12-07T01:33:38;101387.84;;;17.50;54.90
62617;BME280;62539;51.190;6.808;2022-12-07T01:38:45;101393.09;;;17.50;54.97
62617;BME280;62539;51.190;6.808;2022-12-07T01:41:13;101396.59;;;17.49;55.11
62617;BME280;62539;51.190;6.808;2022-12-07T01:47:02;101391.41;;;17.46;54.94
62617;BME280;62539;51.190;6.808;2022-12-07T01:49:37;101385.34;;;17.44;55.01
62617;BME280;62539;51.190;6.808;2022-12-07T01:54:39;101379.22;;;17.43;54.97
62617;BME280;62539;51.190;6.808;2022-12-07T01:57:06;101377.47;;;17.42;55.12
62617;BME280;62539;51.190;6.808;2022-12-07T01:59:33;101381.88;;;17.42;54.98
62617;BME280;62539;51.190;6.808;2022-12-07T02:02:02;101382.72;;;17.42;55.25
62617;BME280;62539;51.190;6.808;2022-12-07T02:04:32;101375.75;;;17.41;55.13
62617;BME280;62539;51.190;6.808;2022-12-07T02:06:58;101374.00;;;17.42;55.05
62617;BME280;62539;51.190;6.808;2022-12-07T02:09:24;101374.03;;;17.40;54.98
62617;BME280;62539;51.190;6.808;2022-12-07T02:11:50;101373.19;;;17.40;55.28
62617;BME280;62539;51.190;6.808;2022-12-07T02:14:17;101369.72;;;17.38;54.96
62617;BME280;62539;51.190;6.808;2022-12-07T02:16:49;101368.00;;;17.37;55.08
62617;BME280;62539;51.190;6.808;2022-12-07T02:31:29;101370.81;;;17.26;55.48
62617;BME280;62539;51.190;6.808;2022-12-07T02:34:10;101371.75;;;17.23;55.37
62617;BME280;62539;51.190;6.808;2022-12-07T02:36:52;101372.59;;;17.24;55.13
62617;BME280;62539;51.190;6.808;2022-12-07T02:39:33;101370.03;;;17.22;55.78
62617;BME280;62539;51.190;6.808;2022-12-07T02:42:19;101366.56;;;17.20;55.33
62617;BME280;62539;51.190;6.808;2022-12-07T02:44:52;101368.31;;;17.19;55.21
62617;BME280;62539;51.190;6.808;2022-12-07T02:47:19;101368.28;;;17.21;55.43
62617;BME280;62539;51.190;6.808;2022-12-07T02:49:50;101364.84;;;17.19;55.61
62617;BME280;62539;51.190;6.808;2022-12-07T02:52:16;101366.56;;;17.20;55.61
62617;BME280;62539;51.190;6.808;2022-12-07T02:54:41;101362.22;;;17.19;55.65
62617;BME280;62539;51.190;6.808;2022-12-07T03:00:19;101368.34;;;17.18;55.52
62617;BME280;62539;51.190;6.808;2022-12-07T03:03:00;101365.75;;;17.16;55.61
62617;BME280;62539;51.190;6.808;2022-12-07T03:08:37;101368.41;;;17.15;55.71
62617;BME280;62539;51.190;6.808;2022-12-07T03:11:13;101366.63;;;17.17;55.41
62617;BME280;62539;51.190;6.808;2022-12-07T03:16:47;101368.47;;;17.12;55.63
62617;BME280;62539;51.190;6.808;2022-12-07T03:19:26;101360.59;;;17.12;55.43
62617;BME280;62539;51.190;6.808;2022-12-07T03:21:59;101364.13;;;17.11;55.63
62617;BME280;62539;51.190;6.808;2022-12-07T03:24:32;101363.22;;;17.12;55.51
62617;BME280;62539;51.190;6.808;2022-12-07T03:27:11;101368.50;;;17.10;55.61
62617;BME280;62539;51.190;6.808;2022-12-07T03:29:48;101365.00;;;17.10;55.54
62617;BME280;62539;51.190;6.808;2022-12-07T03:32:33;101370.25;;;17.10;55.81
62617;BME280;62539;51.190;6.808;2022-12-07T03:35:08;101365.00;;;17.10;55.65
62617;BME280;62539;51.190;6.808;2022-12-07T03:37:51;101370.31;;;17.07;55.60
62617;BME280;62539;51.190;6.808;2022-12-07T03:40:48;101370.31;;;17.07;55.67
62617;BME280;62539;51.190;6.808;2022-12-07T03:43:22;101367.69;;;17.07;55.40
62617;BME280;62539;51.190;6.808;2022-12-07T03:46:06;101366.84;;;17.04;55.75
62617;BME280;62539;51.190;6.808;2022-12-07T03:48:35;101367.72;;;17.05;55.61
62617;BME280;62539;51.190;6.808;2022-12-07T03:51:33;101369.53;;;17.01;55.76
62617;BME280;62539;51.190;6.808;2022-12-07T03:54:21;101361.66;;;17.01;55.56
62617;BME280;62539;51.190;6.808;2022-12-07T03:56:48;101367.75;;;17.02;55.64
62617;BME280;62539;51.190;6.808;2022-12-07T03:59:16;101363.47;;;16.99;55.46
62617;BME280;62539;51.190;6.808;2022-12-07T04:01:43;101358.22;;;16.99;55.41
62617;BME280;62539;51.190;6.808;2022-12-07T04:04:11;101365.19;;;17.00;55.71
62617;BME280;62539;51.190;6.808;2022-12-07T04:06:36;101362.56;;;16.99;55.52
62617;BME280;62539;51.190;6.808;2022-12-07T04:09:02;101362.63;;;16.97;55.68
62617;BME280;62539;51.190;6.808;2022-12-07T04:11:27;101360.00;;;16.97;55.73
62617;BME280;62539;51.190;6.808;2022-12-07T04:13:53;101359.13;;;16.97;55.71
62617;BME280;62539;51.190;6.808;2022-12-07T04:16:37;101370.47;;;16.97;55.58
62617;BME280;62539;51.190;6.808;2022-12-07T04:19:02;101373.97;;;16.96;55.78
62617;BME280;62539;51.190;6.808;2022-12-07T04:21:28;101366.13;;;16.95;55.50
62617;BME280;62539;51.190;6.808;2022-12-07T04:23:53;101363.50;;;16.95;55.79
62617;BME280;62539;51.190;6.808;2022-12-07T04:26:19;101367.06;;;16.92;55.66
62617;BME280;62539;51.190;6.808;2022-12-07T04:28:44;101361.81;;;16.92;55.81
62617;BME280;62539;51.190;6.808;2022-12-07T04:31:09;101368.78;;;16.92;55.81
62617;BME280;62539;51.190;6.808;2022-12-07T04:33:35;101361.81;;;16.92;55.56
62617;BME280;62539;51.190;6.808;2022-12-07T04:36:01;101365.31;;;16.91;55.79
62617;BME280;62539;51.190;6.808;2022-12-07T04:38:27;101353.00;;;16.96;55.64
62617;BME280;62539;51.190;6.808;2022-12-07T04:40:52;101358.09;;;17.06;55.52
62617;BME280;62539;51.190;6.808;2022-12-07T04:43:17;101348.34;;;17.14;55.47
62617;BME280;62539;51.190;6.808;2022-12-07T04:45:49;101353.41;;;17.23;55.15
62617;BME280;62539;51.190;6.808;2022-12-07T04:48:16;101355.84;;;17.32;55.01
62617;BME280;62539;51.190;6.808;2022-12-07T04:50:41;101355.66;;;17.40;54.85
62617;BME280;62539;51.190;6.808;2022-12-07T04:53:06;101352.91;;;17.46;54.71
62617;BME280;62539;51.190;6.808;2022-12-07T04:55:32;101358.03;;;17.53;54.52
62617;BME280;62539;51.190;6.808;2022-12-07T04:57:57;101351.81;;;17.58;54.30
62617;BME280;62539;51.190;6.808;2022-12-07T05:00:23;101347.34;;;17.62;54.19
62617;BME280;62539;51.190;6.808;2022-12-07T05:02:48;101351.63;;;17.68;53.99
62617;BME280;62539;51.190;6.808;2022-12-07T05:05:13;101346.31;;;17.71;54.00
62617;BME280;62539;51.190;6.808;2022-12-07T05:07:39;101343.63;;;17.72;53.92
62617;BME280;62539;51.190;6.808;2022-12-07T05:10:05;101345.34;;;17.75;53.84
62617;BME280;62539;51.190;6.808;2022-12-07T05:12:31;101345.28;;;17.76;53.90
62617;BME280;62539;51.190;6.808;2022-12-07T05:14:56;101343.47;;;17.80;53.72
62617;BME280;62539;51.190;6.808;2022-12-07T05:17:22;101355.63;;;17.84;53.86
62617;BME280;62539;51.190;6.808;2022-12-07T05:19:47;101359.09;;;17.86;53.66
62617;BME280;62539;51.190;6.808;2022-12-07T05:22:13;101352.00;;;17.90;53.83
62617;BME280;62539;51.190;6.808;2022-12-07T05:24:39;101359.78;;;17.95;53.67
62617;BME280;62539;51.190;6.808;2022-12-07T05:27:04;101351.84;;;17.98;53.50
62617;BME280;62539;51.190;6.808;2022-12-07T05:29:29;101359.69;;;18.01;53.38
62617;BME280;62539;51.190;6.808;2022-12-07T05:31:55;101368.38;;;18.03;53.43
62617;BME280;62539;51.190;6.808;2022-12-07T05:34:20;101361.28;;;18.06;53.26
62617;BME280;62539;51.190;6.808;2022-12-07T05:36:46;101360.38;;;18.09;53.19
62617;BME280;62539;51.190;6.808;2022-12-07T05:39:11;101365.53;;;18.12;53.12
62617;BME280;62539;51.190;6.808;2022-12-07T05:41:37;101354.09;;;18.15;53.04
62617;BME280;62539;51.190;6.808;2022-12-07T05:44:21;101348.81;;;18.16;52.99
62617;BME280;62539;51.190;6.808;2022-12-07T05:46:46;101352.28;;;18.18;52.89
62617;BME280;62539;51.190;6.808;2022-12-07T05:49:12;101343.50;;;18.19;52.96
62617;BME280;62539;51.190;6.808;2022-12-07T05:51:37;101344.31;;;18.21;52.94
62617;BME280;62539;51.190;6.808;2022-12-07T05:54:03;101343.41;;;18.23;52.89
62617;BME280;62539;51.190;6.808;2022-12-07T05:56:28;101350.41;;;18.24;52.92
62617;BME280;62539;51.190;6.808;2022-12-07T05:58:54;101350.31;;;18.27;52.89
62617;BME280;62539;51.190;6.808;2022-12-07T06:01:37;101352.88;;;18.30;52.79
62617;BME280;62539;51.190;6.808;2022-12-07T06:04:03;101350.19;;;18.31;52.83
62617;BME280;62539;51.190;6.808;2022-12-07T06:06:28;101353.63;;;18.35;52.64
62617;BME280;62539;51.190;6.808;2022-12-07T06:08:54;101356.22;;;18.36;52.57
62617;BME280;62539;51.190;6.808;2022-12-07T06:11:19;101356.13;;;18.40;52.39
62617;BME280;62539;51.190;6.808;2022-12-07T06:14:03;101363.09;;;18.42;52.82
62617;BME280;62539;51.190;6.808;2022-12-07T06:16:29;101358.66;;;18.44;52.80
62617;BME280;62539;51.190;6.808;2022-12-07T06:18:54;101359.50;;;18.45;52.97
62617;BME280;62539;51.190;6.808;2022-12-07T06:21:20;101355.97;;;18.46;52.72
62617;BME280;62539;51.190;6.808;2022-12-07T06:23:45;101355.97;;;18.46;52.90
62617;BME280;62539;51.190;6.808;2022-12-07T06:26:12;101355.06;;;18.47;52.71
62617;BME280;62539;51.190;6.808;2022-12-07T06:28:38;101358.59;;;18.47;52.61
62617;BME280;62539;51.190;6.808;2022-12-07T06:31:03;101353.34;;;18.47;52.62
62617;BME280;62539;51.190;6.808;2022-12-07T06:33:29;101351.53;;;18.49;52.64
62617;BME280;62539;51.190;6.808;2022-12-07T06:35:54;101357.59;;;18.51;52.53
62617;BME280;62539;51.190;6.808;2022-12-07T06:38:20;101363.72;;;18.52;52.52
62617;BME280;62539;51.190;6.808;2022-12-07T06:40:45;101358.44;;;18.54;52.43
62617;BME280;62539;51.190;6.808;2022-12-07T06:43:11;101354.91;;;18.55;51.96
62617;BME280;62539;51.190;6.808;2022-12-07T06:45:36;101369.75;;;18.56;52.33
62617;BME280;62539;51.190;6.808;2022-12-07T06:48:02;101367.09;;;18.57;52.24
62617;BME280;62539;51.190;6.808;2022-12-07T06:50:27;101364.41;;;18.59;52.05
62617;BME280;62539;51.190;6.808;2022-12-07T06:52:53;101365.22;;;18.61;52.17
62617;BME280;62539;51.190;6.808;2022-12-07T06:55:18;101369.59;;;18.62;52.09
62617;BME280;62539;51.190;6.808;2022-12-07T06:57:44;101363.41;;;18.63;52.00
62617;BME280;62539;51.190;6.808;2022-12-07T07:00:10;101365.13;;;18.65;52.17
62617;BME280;62539;51.190;6.808;2022-12-07T07:02:35;101365.06;;;18.67;52.06
62617;BME280;62539;51.190;6.808;2022-12-07T07:05:01;101368.53;;;18.69;51.92
62617;BME280;62539;51.190;6.808;2022-12-07T07:07:27;101361.47;;;18.71;51.85
62617;BME280;62539;51.190;6.808;2022-12-07T07:09:53;101367.59;;;18.72;51.81
62617;BME280;62539;51.190;6.808;2022-12-07T07:12:18;101362.34;;;18.72;52.05
62617;BME280;62539;51.190;6.808;2022-12-07T07:14:44;101357.94;;;18.72;51.81
62617;BME280;62539;51.190;6.808;2022-12-07T07:17:09;101364.06;;;18.73;51.80
62617;BME280;62539;51.190;6.808;2022-12-07T07:19:34;101364.91;;;18.73;51.74
62617;BME280;62539;51.190;6.808;2022-12-07T07:22:00;101363.19;;;18.72;51.91
62617;BME280;62539;51.190;6.808;2022-12-07T07:24:25;101364.97;;;18.72;51.57
62617;BME280;62539;51.190;6.808;2022-12-07T07:26:51;101370.22;;;18.72;51.73
62617;BME280;62539;51.190;6.808;2022-12-07T07:29:16;101369.41;;;18.70;51.76
62617;BME280;62539;51.190;6.808;2022-12-07T07:31:41;101366.78;;;18.68;52.02
62617;BME280;62539;51.190;6.808;2022-12-07T07:34:07;101365.06;;;18.67;51.77
62617;BME280;62539;51.190;6.808;2022-12-07T07:36:32;101372.97;;;18.67;51.65
62617;BME280;62539;51.190;6.808;2022-12-07T07:38:58;101371.22;;;18.68;51.64
62617;BME280;62539;51.190;6.808;2022-12-07T07:41:23;101370.31;;;18.67;51.58
62617;BME280;62539;51.190;6.808;2022-12-07T07:43:48;101377.31;;;18.68;51.53
62617;BME280;62539;51.190;6.808;2022-12-07T07:46:14;101368.53;;;18.69;51.67
62617;BME280;62539;51.190;6.808;2022-12-07T07:48:39;101370.25;;;18.70;51.65
62617;BME280;62539;51.190;6.808;2022-12-07T07:51:06;101369.34;;;18.71;51.52
62617;BME280;62539;51.190;6.808;2022-12-07T07:53:32;101370.16;;;18.73;51.66
62617;BME280;62539;51.190;6.808;2022-12-07T07:55:58;101371.91;;;18.74;51.75
62617;BME280;62539;51.190;6.808;2022-12-07T07:58:23;101376.22;;;18.77;51.49
62617;BME280;62539;51.190;6.808;2022-12-07T08:00:49;101377.94;;;18.78;51.59
62617;BME280;62539;51.190;6.808;2022-12-07T08:03:14;101377.00;;;18.80;51.51
62617;BME280;62539;51.190;6.808;2022-12-07T08:05:40;101384.84;;;18.82;51.41
62617;BME280;62539;51.190;6.808;2022-12-07T08:08:05;101379.53;;;18.84;51.59
62617;BME280;62539;51.190;6.808;2022-12-07T08:10:31;101389.16;;;18.85;51.33
62617;BME280;62539;51.190;6.808;2022-12-07T08:12:57;101389.13;;;18.86;51.41
62617;BME280;62539;51.190;6.808;2022-12-07T08:15:46;101386.50;;;18.86;50.86
62617;BME280;62539;51.190;6.808;2022-12-07T08:18:14;101391.75;;;18.86;51.09
62617;BME280;62539;51.190;6.808;2022-12-07T08:20:41;101395.25;;;18.87;51.11
62617;BME280;62539;51.190;6.808;2022-12-07T08:23:08;101393.50;;;18.87;51.23
62617;BME280;62539;51.190;6.808;2022-12-07T08:25:35;101398.69;;;18.89;51.12
62617;BME280;62539;51.190;6.808;2022-12-07T08:28:01;101410.03;;;18.91;51.13
62617;BME280;62539;51.190;6.808;2022-12-07T08:30:28;101409.94;;;18.94;51.12
62617;BME280;62539;51.190;6.808;2022-12-07T08:32:55;101406.41;;;18.95;51.24
62617;BME280;62539;51.190;6.808;2022-12-07T08:35:21;101409.91;;;18.97;51.34
62617;BME280;62539;51.190;6.808;2022-12-07T08:37:46;101406.38;;;18.98;50.88
62617;BME280;62539;51.190;6.808;2022-12-07T08:40:12;101399.31;;;19.00;51.03
62617;BME280;62539;51.190;6.808;2022-12-07T08:42:50;101403.66;;;19.01;51.01
62617;BME280;62539;51.190;6.808;2022-12-07T08:45:17;101399.22;;;19.03;50.78
62617;BME280;62539;51.190;6.808;2022-12-07T08:47:51;101402.75;;;19.02;50.89
62617;BME280;62539;51.190;6.808;2022-12-07T08:50:27;101400.09;;;19.04;51.02
62617;BME280;62539;51.190;6.808;2022-12-07T08:52:55;101399.22;;;19.03;50.89
62617;BME280;62539;51.190;6.808;2022-12-07T08:55:23;101401.84;;;19.03;50.89
62617;BME280;62539;51.190;6.808;2022-12-07T08:57:49;101394.84;;;19.04;51.08
62617;BME280;62539;51.190;6.808;2022-12-07T09:00:16;101393.97;;;19.03;50.78
62617;BME280;62539;51.190;6.808;2022-12-07T09:02:43;101393.97;;;19.03;50.71
62617;BME280;62539;51.190;6.808;2022-12-07T09:05:10;101393.16;;;19.01;50.59
62617;BME280;62539;51.190;6.808;2022-12-07T09:07:37;101388.78;;;19.00;50.78
62617;BME280;62539;51.190;6.808;2022-12-07T09:10:04;101390.59;;;18.98;50.78
62617;BME280;62539;51.190;6.808;2022-12-07T09:12:30;101386.25;;;18.97;50.71
62617;BME280;62539;51.190;6.808;2022-12-07T09:14:56;101384.50;;;18.98;50.64
62617;BME280;62539;51.190;6.808;2022-12-07T09:17:21;101389.66;;;19.01;50.52
62617;BME280;62539;51.190;6.808;2022-12-07T09:19:46;101398.28;;;19.06;50.53
62617;BME280;62539;51.190;6.808;2022-12-07T09:22:12;101400.78;;;19.10;50.59
62617;BME280;62539;51.190;6.808;2022-12-07T09:24:37;101395.44;;;19.14;50.53
62617;BME280;62539;51.190;6.808;2022-12-07T09:27:03;101390.97;;;19.17;50.44
62617;BME280;62539;51.190;6.808;2022-12-07T09:29:28;101390.91;;;19.20;50.45
62617;BME280;62539;51.190;6.808;2022-12-07T09:31:53;101391.72;;;19.22;50.52
62617;BME280;62539;51.190;6.808;2022-12-07T09:34:19;101395.09;;;19.26;50.40
62617;BME280;62539;51.190;6.808;2022-12-07T09:36:45;101392.38;;;19.31;50.45
62617;BME280;62539;51.190;6.808;2022-12-07T09:39:11;101394.94;;;19.32;50.37
62617;BME280;62539;51.190;6.808;2022-12-07T09:41:38;101394.91;;;19.34;50.42
62617;BME280;62539;51.190;6.808;2022-12-07T09:44:10;101395.75;;;19.34;50.36
62617;BME280;62539;51.190;6.808;2022-12-07T09:46:40;101394.81;;;19.37;50.27
62617;BME280;62539;51.190;6.808;2022-12-07T09:49:17;101399.22;;;19.36;50.20
62617;BME280;62539;51.190;6.808;2022-12-07T09:51:58;101394.78;;;19.38;50.33
62617;BME280;62539;51.190;6.808;2022-12-07T09:54:29;101394.69;;;19.42;50.14
62617;BME280;62539;51.190;6.808;2022-12-07T09:56:56;101403.41;;;19.44;50.15
62617;BME280;62539;51.190;6.808;2022-12-07T09:59:21;101390.22;;;19.45;50.04
62617;BME280;62539;51.190;6.808;2022-12-07T10:01:49;101397.13;;;19.48;50.08
62617;BME280;62539;51.190;6.808;2022-12-07T10:04:21;101390.97;;;19.49;50.02
62617;BME280;62539;51.190;6.808;2022-12-07T10:06:49;101388.31;;;19.50;49.98
62617;BME280;62539;51.190;6.808;2022-12-07T10:09:17;101383.91;;;19.51;49.79
62617;BME280;62539;51.190;6.808;2022-12-07T10:12:08;101377.78;;;19.50;49.74
62617;BME280;62539;51.190;6.808;2022-12-07T10:14:51;101376.81;;;19.53;49.63
62617;BME280;62539;51.190;6.808;2022-12-07T10:17:32;101370.78;;;19.49;49.76
62617;BME280;62539;51.190;6.808;2022-12-07T10:20:24;101366.47;;;19.47;49.12
62617;BME280;62539;51.190;6.808;2022-12-07T10:23:00;101365.53;;;19.49;49.58
62617;BME280;62539;51.190;6.808;2022-12-07T10:25:32;101369.00;;;19.50;49.75
62617;BME280;62539;51.190;6.808;2022-12-07T10:28:02;101368.09;;;19.51;49.84
62617;BME280;62539;51.190;6.808;2022-12-07T10:30:50;101362.84;;;19.51;49.32
62617;BME280;62539;51.190;6.808;2022-12-07T10:33:48;101364.56;;;19.52;49.62
62617;BME280;62539;51.190;6.808;2022-12-07T10:36:34;101361.81;;;19.57;49.53
62617;BME280;62539;51.190;6.808;2022-12-07T10:39:13;101361.75;;;19.58;49.64
62617;BME280;62539;51.190;6.808;2022-12-07T10:42:01;101359.94;;;19.60;49.77
62617;BME280;62539;51.190;6.808;2022-12-07T10:44:29;101352.88;;;19.62;49.67
62617;BME280;62539;51.190;6.808;2022-12-07T10:49:52;101349.28;;;19.65;49.19
62617;BME280;62539;51.190;6.808;2022-12-07T10:55:26;101343.06;;;19.67;49.08
62617;BME280;62539;51.190;6.808;2022-12-07T11:01:32;101337.75;;;19.69;49.42
62617;BME280;62539;51.190;6.808;2022-12-07T11:13:25;101323.09;;;19.90;48.93
62617;BME280;62539;51.190;6.808;2022-12-07T11:19:25;101327.78;;;20.09;48.75
62617;BME280;62539;51.190;6.808;2022-12-07T11:25:18;101314.22;;;20.21;48.15
62617;BME280;62539;51.190;6.808;2022-12-07T11:36:56;101299.09;;;20.53;48.04
62617;BME280;62539;51.190;6.808;2022-12-07T11:41:49;101299.75;;;20.85;47.90
62617;BME280;62539;51.190;6.808;2022-12-07T11:44:53;101298.13;;;21.07;47.19
62617;BME280;62539;51.190;6.808;2022-12-07T11:47:36;101294.84;;;21.24;47.01
62617;BME280;62539;51.190;6.808;2022-12-07T11:53:10;101287.59;;;21.53;46.20
62617;BME280;62539;51.190;6.808;2022-12-07T12:01:07;101283.19;;;21.98;45.21
62617;BME280;62539;51.190;6.808;2022-12-07T12:03:49;101278.66;;;22.01;45.30
62617;BME280;62539;51.190;6.808;2022-12-07T12:06:17;101281.22;;;22.03;46.01
62617;BME280;62539;51.190;6.808;2022-12-07T12:20:43;101255.84;;;22.42;44.34
62617;BME280;62539;51.190;6.808;2022-12-07T12:23:37;101261.81;;;22.68;44.06
62617;BME280;62539;51.190;6.808;2022-12-07T12:26:24;101263.63;;;22.86;44.03
62617;BME280;62539;51.190;6.808;2022-12-07T12:28:59;101258.19;;;22.89;43.54
62617;BME280;62539;51.190;6.808;2022-12-07T12:34:04;101258.06;;;23.12;42.97
62617;BME280;62539;51.190;6.808;2022-12-07T12:36:55;101253.00;;;23.07;43.93
62617;BME280;62539;51.190;6.808;2022-12-07T12:39:20;101248.97;;;22.98;43.77
62617;BME280;62539;51.190;6.808;2022-12-07T12:46:52;101243.84;;;23.14;43.15
62617;BME280;62539;51.190;6.808;2022-12-07T12:51:48;101244.59;;;22.78;44.42
62617;BME280;62539;51.190;6.808;2022-12-07T12:54:20;101233.81;;;22.62;44.35
62617;BME280;62539;51.190;6.808;2022-12-07T13:02:22;101231.56;;;22.11;45.37
62617;BME280;62539;51.190;6.808;2022-12-07T13:04:55;101231.94;;;22.02;45.60
62617;BME280;62539;51.190;6.808;2022-12-07T13:13:02;101227.22;;;21.67;46.11
62617;BME280;62539;51.190;6.808;2022-12-07T13:26:39;101216.00;;;21.38;46.55
62617;BME280;62539;51.190;6.808;2022-12-07T13:29:12;101218.56;;;21.40;46.74
62617;BME280;62539;51.190;6.808;2022-12-07T13:34:36;101219.94;;;21.28;47.02
62617;BME280;62539;51.190;6.808;2022-12-07T13:39:54;101208.50;;;21.27;47.23
62617;BME280;62539;51.190;6.808;2022-12-07T13:42:30;101216.72;;;21.20;47.20
62617;BME280;62539;51.190;6.808;2022-12-07T13:44:58;101206.19;;;21.20;46.89
62617;BME280;62539;51.190;6.808;2022-12-07T13:47:48;101201.13;;;21.13;46.04
62617;BME280;62539;51.190;6.808;2022-12-07T13:50:27;101199.38;;;21.14;46.17
62617;BME280;62539;51.190;6.808;2022-12-07T13:52:59;101194.16;;;21.12;46.23
62617;BME280;62539;51.190;6.808;2022-12-07T13:55:27;101187.16;;;21.11;46.00
62617;BME280;62539;51.190;6.808;2022-12-07T13:57:54;101190.72;;;21.10;46.26
62617;BME280;62539;51.190;6.808;2022-12-07T14:00:21;101190.72;;;21.10;45.89
62617;BME280;62539;51.190;6.808;2022-12-07T14:02:58;101192.66;;;21.05;46.05
62617;BME280;62539;51.190;6.808;2022-12-07T14:05:28;101182.06;;;21.07;45.72
62617;BME280;62539;51.190;6.808;2022-12-07T14:08:20;101177.81;;;21.03;45.73
62617;BME280;62539;51.190;6.808;2022-12-07T14:13:32;101179.91;;;20.94;45.43
62617;BME280;62539;51.190;6.808;2022-12-07T14:16:01;101171.91;;;20.96;46.19
62617;BME280;62539;51.190;6.808;2022-12-07T14:18:36;101172.03;;;20.93;46.48
62617;BME280;62539;51.190;6.808;2022-12-07T14:21:14;101168.59;;;20.91;46.27
62617;BME280;62539;51.190;6.808;2022-12-07T14:23:40;101171.31;;;20.89;46.23
62617;BME280;62539;51.190;6.808;2022-12-07T14:26:18;101163.66;;;20.81;46.89
62617;BME280;62539;51.190;6.808;2022-12-07T14:28:46;101162.72;;;20.84;46.58
62617;BME280;62539;51.190;6.808;2022-12-07T14:31:17;101160.13;;;20.82;46.77
62617;BME280;62539;51.190;6.808;2022-12-07T14:33:46;101160.13;;;20.82;47.02
62617;BME280;62539;51.190;6.808;2022-12-07T14:36:13;101154.97;;;20.79;47.07
62617;BME280;62539;51.190;6.808;2022-12-07T14:38:39;101157.66;;;20.78;46.95
62617;BME280;62539;51.190;6.808;2022-12-07T14:41:12;101153.44;;;20.72;47.18
62617;BME280;62539;51.190;6.808;2022-12-07T14:44:00;101154.44;;;20.69;47.41
62617;BME280;62539;51.190;6.808;2022-12-07T14:46:25;101153.66;;;20.66;47.52
62617;BME280;62539;51.190;6.808;2022-12-07T14:48:51;101152.06;;;20.62;47.33
62617;BME280;62539;51.190;6.808;2022-12-07T14:51:16;101136.38;;;20.59;47.49
62617;BME280;62539;51.190;6.808;2022-12-07T14:53:45;101141.81;;;20.54;47.78
62617;BME280;62539;51.190;6.808;2022-12-07T14:56:13;101140.13;;;20.51;47.57
62617;BME280;62539;51.190;6.808;2022-12-07T14:58:40;101149.94;;;20.48;47.59
62617;BME280;62539;51.190;6.808;2022-12-07T15:01:06;101148.34;;;20.44;47.69
62617;BME280;62539;51.190;6.808;2022-12-07T15:03:31;101138.75;;;20.41;47.87
62617;BME280;62539;51.190;6.808;2022-12-07T15:05:59;101131.78;;;20.40;48.06
62617;BME280;62539;51.190;6.808;2022-12-07T15:08:25;101130.06;;;20.39;47.85
62617;BME280;62539;51.190;6.808;2022-12-07T15:10:50;101128.41;;;20.36;48.09
62617;BME280;62539;51.190;6.808;2022-12-07T15:13:15;101123.19;;;20.35;48.11